Time;durP1;ratioP1;P1;durP2;ratioP2;P2;SDS_P1;SDS_P2;PMS_P1;PMS_P2;Temp;Humidity;BMP_temperature;BMP_pressure;BME280_temperature;BME280_humidity;BME280_pressure;Samples;Min_cycle;Max_cycle;Signal;HPM_P1;HPM_P2
2022/06/09 00:01:46;;;;;;;3.47;1.98;;;;;;;;;;5015854;28;20415;-82
2022/06/09 00:04:16;;;;;;;0.30;0.30;;;;;;;;;;5003898;28;20033;-82
2022/06/09 00:06:45;;;;;;;4.97;1.15;;;;;;;;;;5047669;28;20097;-82
2022/06/09 00:09:10;;;;;;;1.60;0.93;;;;;;;;;;5047979;28;20025;-78
2022/06/09 00:11:46;;;;;;;0.90;0.85;;;;;;;;;;5014781;28;20144;-81
2022/06/09 00:14:12;;;;;;;0.70;0.57;;;;;;;;;;5047026;28;20021;-80
2022/06/09 00:16:37;;;;;;;0.38;0.38;;;;;;;;;;5014445;28;20506;-81
2022/06/09 00:19:05;;;;;;;0.88;0.80;;;;;;;;;;5015286;28;20037;-81
2022/06/09 00:21:30;;;;;;;3.25;2.05;;;;;;;;;;5047430;28;20057;-79
2022/06/09 00:23:55;;;;;;;0.85;0.85;;;;;;;;;;5015349;28;20064;-82
2022/06/09 00:26:21;;;;;;;0.85;0.82;;;;;;;;;;5015106;28;20022;-81
2022/06/09 00:28:46;;;;;;;0.15;0.15;;;;;;;;;;5015629;28;20033;-81
2022/06/09 00:31:11;;;;;;;0.82;0.77;;;;;;;;;;5015008;28;20032;-77
2022/06/09 00:33:37;;;;;;;0.28;0.28;;;;;;;;;;5014944;28;20032;-81
2022/06/09 00:36:03;;;;;;;1.02;0.65;;;;;;;;;;5014107;28;20022;-83
2022/06/09 00:38:28;;;;;;;0.10;0.10;;;;;;;;;;5047198;28;20100;-81
2022/06/09 00:40:59;;;;;;;0.75;0.60;;;;;;;;;;5014789;28;20129;-81
2022/06/09 00:43:25;;;;;;;1.00;0.43;;;;;;;;;;5014981;28;20030;-77
2022/06/09 00:46:27;;;;;;;1.00;0.85;;;;;;;;;;5014910;28;20025;-81
2022/06/09 00:49:00;;;;;;;2.45;1.02;;;;;;;;;;4996789;28;20025;-80
2022/06/09 00:51:44;;;;;;;0.32;0.32;;;;;;;;;;5011201;28;20093;-82
2022/06/09 00:54:09;;;;;;;0.57;0.57;;;;;;;;;;5014820;28;20482;-82
2022/06/09 00:56:40;;;;;;;1.88;0.73;;;;;;;;;;5014754;28;20030;-79
2022/06/09 00:59:05;;;;;;;1.85;1.17;;;;;;;;;;5013817;28;20511;-74
2022/06/09 01:01:31;;;;;;;5.28;0.77;;;;;;;;;;5046880;28;20038;-83
2022/06/09 01:04:04;;;;;;;0.17;0.17;;;;;;;;;;5014553;28;20021;-80
2022/06/09 01:06:34;;;;;;;0.15;0.15;;;;;;;;;;5047399;28;20033;-73
2022/06/09 01:09:14;;;;;;;0.73;0.73;;;;;;;;;;5014273;28;20091;-82
2022/06/09 01:11:41;;;;;;;0.40;0.40;;;;;;;;;;5047080;28;20168;-80
2022/06/09 01:14:08;;;;;;;0.90;0.73;;;;;;;;;;5013685;28;20022;-82
2022/06/09 01:16:43;;;;;;;0.13;0.13;;;;;;;;;;5030215;28;20101;-83
2022/06/09 01:19:20;;;;;;;1.02;0.93;;;;;;;;;;5014650;28;20030;-81
2022/06/09 01:21:51;;;;;;;0.13;0.13;;;;;;;;;;5014565;28;20030;-83
2022/06/09 01:24:22;;;;;;;8.05;0.65;;;;;;;;;;5014874;28;20030;-81
2022/06/09 01:26:53;;;;;;;2.10;0.93;;;;;;;;;;5014840;28;20073;-81
2022/06/09 01:29:33;;;;;;;2.90;0.40;;;;;;;;;;5015122;28;20026;-82
2022/06/09 01:31:59;;;;;;;4.68;1.08;;;;;;;;;;5046998;28;20037;-82
2022/06/09 01:34:46;;;;;;;0.57;0.52;;;;;;;;;;5014527;28;20025;-80
2022/06/09 01:37:16;;;;;;;3.70;0.93;;;;;;;;;;5046388;28;20045;-84
2022/06/09 01:39:50;;;;;;;0.40;0.40;;;;;;;;;;5014458;28;20030;-82
2022/06/09 01:42:32;;;;;;;0.73;0.73;;;;;;;;;;5014414;28;20029;-81
2022/06/09 01:45:18;;;;;;;0.65;0.20;;;;;;;;;;5029849;28;20026;-83
2022/06/09 01:47:46;;;;;;;5.97;1.00;;;;;;;;;;5013305;28;20044;-82
2022/06/09 01:50:17;;;;;;;5.45;0.55;;;;;;;;;;5014762;28;20136;-82
2022/06/09 01:52:44;;;;;;;0.35;0.35;;;;;;;;;;5032276;28;20056;-83
2022/06/09 01:55:12;;;;;;;0.40;0.30;;;;;;;;;;5018581;28;20100;-83
2022/06/09 01:57:38;;;;;;;0.10;0.10;;;;;;;;;;5050146;28;20111;-80
2022/06/09 02:00:09;;;;;;;0.40;0.40;;;;;;;;;;5050690;28;20334;-80
2022/06/09 02:02:41;;;;;;;0.15;0.15;;;;;;;;;;5017599;28;20030;-80
2022/06/09 02:05:11;;;;;;;3.33;0.43;;;;;;;;;;5001509;28;20358;-81
2022/06/09 02:07:37;;;;;;;0.47;0.32;;;;;;;;;;5051174;28;20029;-83
2022/06/09 02:10:19;;;;;;;0.35;0.28;;;;;;;;;;5018656;28;20447;-82
2022/06/09 02:12:45;;;;;;;1.75;1.05;;;;;;;;;;5019068;28;20446;-80
2022/06/09 02:15:14;;;;;;;0.03;0.03;;;;;;;;;;5017789;28;20116;-79
2022/06/09 02:17:47;;;;;;;0.98;0.50;;;;;;;;;;5032858;28;20108;-80
2022/06/09 02:20:14;;;;;;;0.98;0.50;;;;;;;;;;5017697;28;20036;-78
2022/06/09 02:22:39;;;;;;;0.50;0.50;;;;;;;;;;5042443;28;20052;-81
2022/06/09 02:25:07;;;;;;;0.95;0.93;;;;;;;;;;5017665;28;20041;-82
2022/06/09 02:27:33;;;;;;;1.48;1.38;;;;;;;;;;5017468;28;20381;-77
2022/06/09 02:29:58;;;;;;;0.00;0.00;;;;;;;;;;5011317;28;20056;-80
2022/06/09 02:32:26;;;;;;;0.10;0.10;;;;;;;;;;5017245;28;20478;-81
2022/06/09 02:34:53;;;;;;;0.10;0.10;;;;;;;;;;5017320;28;20038;-79
2022/06/09 02:37:23;;;;;;;0.63;0.57;;;;;;;;;;5017105;28;20061;-80
2022/06/09 02:39:49;;;;;;;0.20;0.20;;;;;;;;;;5017173;28;20018;-79
2022/06/09 02:42:14;;;;;;;0.63;0.63;;;;;;;;;;5017139;28;20046;-77
2022/06/09 02:44:39;;;;;;;0.10;0.10;;;;;;;;;;5017113;28;20030;-81
2022/06/09 02:47:07;;;;;;;0.20;0.20;;;;;;;;;;5017027;28;20447;-80
2022/06/09 02:49:33;;;;;;;0.10;0.10;;;;;;;;;;5017531;28;20025;-80
2022/06/09 02:51:58;;;;;;;0.00;0.00;;;;;;;;;;5016023;28;20022;-81
2022/06/09 02:54:24;;;;;;;0.38;0.28;;;;;;;;;;5018220;28;20048;-80
2022/06/09 02:56:49;;;;;;;1.58;0.70;;;;;;;;;;5017210;28;20514;-81
2022/06/09 02:59:14;;;;;;;0.45;0.45;;;;;;;;;;5017370;28;20367;-79
2022/06/09 03:01:40;;;;;;;1.77;0.65;;;;;;;;;;5017744;28;20085;-80
2022/06/09 03:04:06;;;;;;;0.88;0.80;;;;;;;;;;5018175;28;20418;-80
2022/06/09 03:06:33;;;;;;;0.57;0.57;;;;;;;;;;5016922;28;20054;-79
2022/06/09 03:08:58;;;;;;;7.13;0.52;;;;;;;;;;5016236;28;20030;-79
2022/06/09 03:11:26;;;;;;;0.40;0.40;;;;;;;;;;5017688;28;20036;-78
2022/06/09 03:13:51;;;;;;;2.40;0.40;;;;;;;;;;5018300;28;20038;-75
2022/06/09 03:16:18;;;;;;;1.30;1.23;;;;;;;;;;5017590;28;20164;-81
2022/06/09 03:18:44;;;;;;;2.88;0.85;;;;;;;;;;5017250;28;20041;-80
2022/06/09 03:21:11;;;;;;;16.08;0.43;;;;;;;;;;5015574;28;20455;-80
2022/06/09 03:23:37;;;;;;;6.30;1.75;;;;;;;;;;5015730;28;20109;-80
2022/06/09 03:26:03;;;;;;;3.85;1.38;;;;;;;;;;5016623;28;20033;-82
2022/06/09 03:28:28;;;;;;;1.58;0.77;;;;;;;;;;5048528;28;20022;-80
2022/06/09 03:30:55;;;;;;;0.40;0.40;;;;;;;;;;5015383;28;20163;-81
2022/06/09 03:33:20;;;;;;;0.57;0.57;;;;;;;;;;5016313;28;20040;-80
2022/06/09 03:35:46;;;;;;;0.30;0.30;;;;;;;;;;5048367;28;20026;-80
2022/06/09 03:38:13;;;;;;;9.20;1.02;;;;;;;;;;5048122;28;20407;-80
2022/06/09 03:40:41;;;;;;;0.20;0.20;;;;;;;;;;5016062;28;20033;-80
2022/06/09 03:43:09;;;;;;;2.72;1.60;;;;;;;;;;5016324;28;20126;-76
2022/06/09 03:45:35;;;;;;;0.57;0.30;;;;;;;;;;5014993;28;20116;-81
2022/06/09 03:48:03;;;;;;;0.88;0.57;;;;;;;;;;5015978;28;20105;-81
2022/06/09 03:50:30;;;;;;;2.58;1.48;;;;;;;;;;5047716;28;20041;-80
2022/06/09 03:52:55;;;;;;;1.55;1.42;;;;;;;;;;5015647;28;20128;-78
2022/06/09 03:55:21;;;;;;;0.85;0.77;;;;;;;;;;5047875;28;20469;-78
2022/06/09 03:57:47;;;;;;;0.30;0.30;;;;;;;;;;5016031;28;20030;-81
2022/06/09 04:00:19;;;;;;;1.23;0.25;;;;;;;;;;5048120;28;20049;-80
2022/06/09 04:02:45;;;;;;;0.47;0.47;;;;;;;;;;5030945;28;20021;-74
2022/06/09 04:05:10;;;;;;;0.93;0.77;;;;;;;;;;5015408;28;20032;-79
2022/06/09 04:07:40;;;;;;;0.75;0.75;;;;;;;;;;5016021;28;20431;-75
2022/06/09 04:10:08;;;;;;;1.45;0.85;;;;;;;;;;5031016;28;20471;-79
2022/06/09 04:12:34;;;;;;;0.52;0.43;;;;;;;;;;5015409;28;20029;-79
2022/06/09 04:15:00;;;;;;;1.20;1.05;;;;;;;;;;5015302;28;20030;-79
2022/06/09 04:17:30;;;;;;;0.82;0.82;;;;;;;;;;5015327;28;20351;-79
2022/06/09 04:19:55;;;;;;;0.68;0.68;;;;;;;;;;5015109;28;20085;-82
2022/06/09 04:22:21;;;;;;;1.20;1.10;;;;;;;;;;5015371;28;20388;-82
2022/06/09 04:24:46;;;;;;;0.52;0.40;;;;;;;;;;5014336;28;20447;-82
2022/06/09 04:27:11;;;;;;;1.15;1.05;;;;;;;;;;5015510;28;20037;-82
2022/06/09 04:29:37;;;;;;;2.70;1.02;;;;;;;;;;5015180;28;20029;-81
2022/06/09 04:32:03;;;;;;;2.28;1.38;;;;;;;;;;5047285;28;20439;-82
2022/06/09 04:34:29;;;;;;;6.60;3.50;;;;;;;;;;5015323;28;20048;-82
2022/06/09 04:36:56;;;;;;;3.45;1.58;;;;;;;;;;5015236;28;20026;-82
2022/06/09 04:39:21;;;;;;;1.95;1.67;;;;;;;;;;5015517;28;20502;-82
2022/06/09 04:41:47;;;;;;;4.20;1.80;;;;;;;;;;5014797;28;20045;-83
2022/06/09 04:44:14;;;;;;;1.88;1.58;;;;;;;;;;5014891;28;20088;-83
2022/06/09 04:46:40;;;;;;;1.55;1.20;;;;;;;;;;5014974;28;20033;-83
2022/06/09 04:49:05;;;;;;;2.65;1.77;;;;;;;;;;5014914;28;20025;-82
2022/06/09 04:51:33;;;;;;;3.63;2.30;;;;;;;;;;5014825;28;20025;-82
2022/06/09 04:54:01;;;;;;;1.45;1.35;;;;;;;;;;5015207;28;20088;-82
2022/06/09 04:56:28;;;;;;;2.95;2.53;;;;;;;;;;5014720;28;20026;-82
2022/06/09 04:58:54;;;;;;;3.08;2.45;;;;;;;;;;5014922;28;20116;-81
2022/06/09 05:01:27;;;;;;;1.63;1.02;;;;;;;;;;5014701;28;20072;-83
2022/06/09 05:03:53;;;;;;;2.53;1.95;;;;;;;;;;5046372;28;20041;-82
2022/06/09 05:06:22;;;;;;;1.42;1.33;;;;;;;;;;5014711;28;20026;-81
2022/06/09 05:08:50;;;;;;;1.92;1.45;;;;;;;;;;5013855;28;20034;-82
2022/06/09 05:11:19;;;;;;;1.17;0.90;;;;;;;;;;5014592;28;20037;-80
2022/06/09 05:13:45;;;;;;;2.03;1.85;;;;;;;;;;5013829;28;20451;-82
2022/06/09 05:16:11;;;;;;;3.40;2.10;;;;;;;;;;5014593;28;20407;-82
2022/06/09 05:18:39;;;;;;;1.98;1.73;;;;;;;;;;5038252;28;20030;-81
2022/06/09 05:21:09;;;;;;;3.95;1.75;;;;;;;;;;5046735;28;20025;-81
2022/06/09 05:23:35;;;;;;;8.10;2.17;;;;;;;;;;5013953;28;20049;-82
2022/06/09 05:26:03;;;;;;;2.47;1.77;;;;;;;;;;5013617;28;20440;-82
2022/06/09 05:28:29;;;;;;;2.58;1.73;;;;;;;;;;5017450;28;20018;-81
2022/06/09 05:30:55;;;;;;;4.68;2.88;;;;;;;;;;5017474;28;20361;-81
2022/06/09 05:33:21;;;;;;;5.28;2.75;;;;;;;;;;5050756;28;20022;-81
2022/06/09 05:35:49;;;;;;;1.70;1.60;;;;;;;;;;5017466;28;20030;-77
2022/06/09 05:46:31;;;;;;;2.80;2.25;;;;;;;;;;5018458;28;20073;-83
2022/06/09 05:48:57;;;;;;;2.08;1.85;;;;;;;;;;5018232;28;20351;-82
2022/06/09 05:51:22;;;;;;;2.67;2.10;;;;;;;;;;5018110;28;20021;-81
2022/06/09 05:53:50;;;;;;;2.33;2.20;;;;;;;;;;5050094;28;20045;-81
2022/06/09 05:56:16;;;;;;;1.98;1.80;;;;;;;;;;5050170;28;20021;-84
2022/06/09 05:58:41;;;;;;;3.08;2.25;;;;;;;;;;5050093;28;20350;-75
2022/06/09 06:01:09;;;;;;;4.80;3.58;;;;;;;;;;5017794;28;20036;-82
2022/06/09 06:03:36;;;;;;;2.60;2.22;;;;;;;;;;5017804;28;20458;-81
2022/06/09 06:08:48;;;;;;;4.35;2.15;;;;;;;;;;5017723;28;20033;-82
2022/06/09 06:11:14;;;;;;;3.33;1.95;;;;;;;;;;5017688;28;20026;-81
2022/06/09 06:13:41;;;;;;;2.22;2.03;;;;;;;;;;5017295;28;20021;-81
2022/06/09 06:16:06;;;;;;;3.53;2.35;;;;;;;;;;5050954;28;20065;-80
2022/06/09 06:18:31;;;;;;;5.60;2.53;;;;;;;;;;5017592;28;20072;-78
2022/06/09 06:20:57;;;;;;;4.25;2.50;;;;;;;;;;5017692;28;20056;-82
2022/06/09 06:23:26;;;;;;;3.80;2.25;;;;;;;;;;5016476;28;20522;-80
2022/06/09 06:25:52;;;;;;;2.60;2.05;;;;;;;;;;5017431;28;20049;-82
2022/06/09 06:28:18;;;;;;;2.55;2.35;;;;;;;;;;5017426;28;20022;-82
2022/06/09 06:30:43;;;;;;;4.13;2.63;;;;;;;;;;5017409;28;20355;-80
2022/06/09 06:33:11;;;;;;;1.38;1.27;;;;;;;;;;5053066;28;20034;-82
2022/06/09 06:35:36;;;;;;;3.20;2.20;;;;;;;;;;5017172;28;20459;-82
2022/06/09 06:38:01;;;;;;;2.97;2.38;;;;;;;;;;5016831;28;20053;-79
2022/06/09 06:40:27;;;;;;;3.13;2.83;;;;;;;;;;5017535;28;20443;-81
2022/06/09 06:42:52;;;;;;;3.53;2.20;;;;;;;;;;5017116;28;20049;-82
2022/06/09 06:45:20;;;;;;;4.55;2.15;;;;;;;;;;5017156;28;20109;-83
2022/06/09 06:47:48;;;;;;;1.58;1.27;;;;;;;;;;5017056;28;20117;-79
2022/06/09 06:50:14;;;;;;;6.13;2.22;;;;;;;;;;5017643;28;20025;-82
2022/06/09 06:52:40;;;;;;;9.88;4.00;;;;;;;;;;5017044;28;20105;-79
2022/06/09 06:55:08;;;;;;;2.55;2.35;;;;;;;;;;5017096;28;20545;-81
2022/06/09 06:57:33;;;;;;;4.72;2.67;;;;;;;;;;5032469;28;20099;-81
2022/06/09 07:00:00;;;;;;;2.63;2.42;;;;;;;;;;5016903;28;20022;-82
2022/06/09 07:02:27;;;;;;;3.17;2.75;;;;;;;;;;5048724;28;20112;-80
2022/06/09 07:04:53;;;;;;;3.22;2.15;;;;;;;;;;5016816;28;20029;-84
2022/06/09 07:07:21;;;;;;;2.97;2.78;;;;;;;;;;5016748;28;20014;-84
2022/06/09 07:09:46;;;;;;;3.67;3.03;;;;;;;;;;5016943;28;20034;-79
2022/06/09 07:12:12;;;;;;;7.40;2.72;;;;;;;;;;5016688;28;20037;-83
2022/06/09 07:14:37;;;;;;;2.30;2.03;;;;;;;;;;5016575;28;20037;-83
2022/06/09 07:17:03;;;;;;;3.13;1.73;;;;;;;;;;5016466;28;20105;-82
2022/06/09 07:19:29;;;;;;;8.18;3.42;;;;;;;;;;5016446;28;20467;-82
2022/06/09 07:21:55;;;;;;;3.92;3.55;;;;;;;;;;5016416;28;20022;-83
2022/06/09 07:24:20;;;;;;;2.97;1.80;;;;;;;;;;5015532;28;20041;-79
2022/06/09 07:26:48;;;;;;;4.72;3.05;;;;;;;;;;5048624;28;20041;-83
2022/06/09 07:29:13;;;;;;;5.25;3.08;;;;;;;;;;5016621;28;20044;-82
2022/06/09 07:31:41;;;;;;;4.22;2.90;;;;;;;;;;5016411;28;20452;-82
2022/06/09 07:34:06;;;;;;;5.53;2.75;;;;;;;;;;5016399;28;20029;-80
2022/06/09 07:36:32;;;;;;;2.88;2.13;;;;;;;;;;5016813;28;20036;-82
2022/06/09 07:38:57;;;;;;;4.10;3.58;;;;;;;;;;5015785;28;20054;-82
2022/06/09 07:41:23;;;;;;;3.95;3.55;;;;;;;;;;5016307;28;20407;-82
2022/06/09 07:43:49;;;;;;;2.65;2.38;;;;;;;;;;5016505;28;20052;-82
2022/06/09 07:46:17;;;;;;;6.38;4.47;;;;;;;;;;5015152;28;20045;-81
2022/06/09 07:48:45;;;;;;;3.25;2.95;;;;;;;;;;5015634;28;20113;-82
2022/06/09 07:51:11;;;;;;;8.60;4.25;;;;;;;;;;5047760;28;20034;-81
2022/06/09 07:53:39;;;;;;;4.28;3.70;;;;;;;;;;5048074;28;20026;-81
2022/06/09 07:56:05;;;;;;;2.97;2.75;;;;;;;;;;5015903;28;20026;-82
2022/06/09 07:58:33;;;;;;;5.57;3.20;;;;;;;;;;5015829;28;20033;-81
2022/06/09 08:00:58;;;;;;;5.60;3.30;;;;;;;;;;5015654;28;20022;-81
2022/06/09 08:03:28;;;;;;;3.22;2.90;;;;;;;;;;5016003;28;20188;-78
2022/06/09 08:05:54;;;;;;;4.05;3.50;;;;;;;;;;5015608;28;20109;-83
2022/06/09 08:08:20;;;;;;;6.38;3.80;;;;;;;;;;5015712;28;20029;-82
2022/06/09 08:10:46;;;;;;;2.95;2.28;;;;;;;;;;5047649;28;20454;-80
2022/06/09 08:13:14;;;;;;;3.78;2.85;;;;;;;;;;5017970;28;20120;-83
2022/06/09 08:15:42;;;;;;;4.03;2.83;;;;;;;;;;5020474;28;20097;-81
2022/06/09 08:18:07;;;;;;;2.20;2.00;;;;;;;;;;5014472;28;20133;-82
2022/06/09 08:20:37;;;;;;;3.25;2.70;;;;;;;;;;5015436;28;20053;-81
2022/06/09 08:23:10;;;;;;;3.30;3.03;;;;;;;;;;5014930;28;20049;-81
2022/06/09 08:25:37;;;;;;;3.55;1.98;;;;;;;;;;5014596;28;20022;-81
2022/06/09 08:28:03;;;;;;;10.55;1.92;;;;;;;;;;5014539;28;20022;-82
2022/06/09 08:30:29;;;;;;;4.07;2.28;;;;;;;;;;5014434;28;20056;-82
2022/06/09 08:32:55;;;;;;;4.85;2.83;;;;;;;;;;5014284;28;20045;-76
2022/06/09 08:35:24;;;;;;;2.17;2.00;;;;;;;;;;5015738;28;20025;-77
2022/06/09 08:37:51;;;;;;;2.63;2.42;;;;;;;;;;5030653;28;20041;-77
2022/06/09 08:40:23;;;;;;;6.80;3.00;;;;;;;;;;5015601;28;20461;-77
2022/06/09 08:43:14;;;;;;;3.88;3.20;;;;;;;;;;5047536;28;20120;-77
2022/06/09 08:45:41;;;;;;;5.55;3.10;;;;;;;;;;5015085;28;20036;-77
2022/06/09 08:48:17;;;;;;;3.33;2.53;;;;;;;;;;5047042;28;20113;-77
2022/06/09 08:50:57;;;;;;;2.88;2.53;;;;;;;;;;5014224;28;20026;-78
2022/06/09 08:53:35;;;;;;;5.72;3.30;;;;;;;;;;5014448;28;20029;-77
2022/06/09 08:56:17;;;;;;;3.00;2.70;;;;;;;;;;5047060;28;20044;-77
2022/06/09 08:58:47;;;;;;;3.30;3.00;;;;;;;;;;5046896;28;20444;-78
2022/06/09 09:01:31;;;;;;;4.65;2.40;;;;;;;;;;5029774;28;20060;-78
2022/06/09 09:04:22;;;;;;;4.28;3.22;;;;;;;;;;5014899;28;20032;-77
2022/06/09 09:07:02;;;;;;;3.97;3.60;;;;;;;;;;5015194;28;20343;-78
2022/06/09 09:09:32;;;;;;;3.63;3.15;;;;;;;;;;5014793;28;20030;-78
2022/06/09 09:12:16;;;;;;;4.18;3.58;;;;;;;;;;5014865;28;20054;-77
2022/06/09 09:15:06;;;;;;;4.53;3.28;;;;;;;;;;5014759;28;20337;-76
2022/06/09 09:18:08;;;;;;;4.47;3.03;;;;;;;;;;5030202;28;20506;-76
2022/06/09 09:20:39;;;;;;;3.38;2.97;;;;;;;;;;5014976;28;20052;-77
2022/06/09 09:23:11;;;;;;;2.38;2.13;;;;;;;;;;5013676;28;20022;-82
2022/06/09 09:25:37;;;;;;;3.50;3.13;;;;;;;;;;5014959;28;20028;-79
2022/06/09 09:28:11;;;;;;;3.35;2.80;;;;;;;;;;5014846;28;20022;-82
2022/06/09 09:30:36;;;;;;;4.93;3.25;;;;;;;;;;5014516;28;20093;-80
2022/06/09 09:33:04;;;;;;;2.88;2.33;;;;;;;;;;5014542;28;20029;-82
2022/06/09 09:35:33;;;;;;;4.22;2.72;;;;;;;;;;5046241;28;20029;-81
2022/06/09 09:38:02;;;;;;;8.77;3.78;;;;;;;;;;5046746;28;20022;-78
2022/06/09 09:40:35;;;;;;;4.03;2.55;;;;;;;;;;5046675;28;20033;-78
2022/06/09 09:43:14;;;;;;;2.63;2.03;;;;;;;;;;5014750;28;20028;-77
2022/06/09 09:45:45;;;;;;;3.42;2.22;;;;;;;;;;5013589;28;20022;-78
2022/06/09 09:48:17;;;;;;;2.63;2.23;;;;;;;;;;5013693;28;20018;-77
2022/06/09 09:51:00;;;;;;;2.80;1.60;;;;;;;;;;5014467;28;20279;-78
2022/06/09 09:53:35;;;;;;;3.35;2.97;;;;;;;;;;5014789;28;20042;-78
2022/06/09 09:56:25;;;;;;;12.02;2.92;;;;;;;;;;5014644;28;20462;-79
2022/06/09 09:58:58;;;;;;;2.38;2.13;;;;;;;;;;5013913;28;20022;-78
2022/06/09 10:01:24;;;;;;;2.40;2.20;;;;;;;;;;5046563;28;20022;-82
2022/06/09 10:10:13;;;;;;;3.30;2.97;;;;;;;;;;5042141;28;20036;-80
2022/06/09 10:12:40;;;;;;;2.93;2.63;;;;;;;;;;5014463;28;20036;-80
2022/06/09 10:15:09;;;;;;;1.77;1.67;;;;;;;;;;5050391;28;20025;-79
2022/06/09 10:17:35;;;;;;;2.05;1.88;;;;;;;;;;5017721;28;20072;-80
2022/06/09 10:20:19;;;;;;;4.90;3.70;;;;;;;;;;5017679;28;20338;-81
2022/06/09 10:23:01;;;;;;;2.85;2.25;;;;;;;;;;5050445;28;20328;-79
2022/06/09 10:25:51;;;;;;;2.88;1.92;;;;;;;;;;5017670;28;20053;-78
2022/06/09 10:28:48;;;;;;;3.33;1.58;;;;;;;;;;5017476;28;20092;-79
2022/06/09 10:31:38;;;;;;;16.92;2.47;;;;;;;;;;5018182;28;20076;-78
2022/06/09 10:34:14;;;;;;;8.85;1.27;;;;;;;;;;5018719;28;20049;-78
2022/06/09 10:36:41;;;;;;;2.13;1.38;;;;;;;;;;5049790;28;20026;-78
2022/06/09 10:39:16;;;;;;;1.75;1.65;;;;;;;;;;5032834;28;20034;-77
2022/06/09 10:41:48;;;;;;;3.38;1.58;;;;;;;;;;5049555;28;20053;-76
2022/06/09 10:44:23;;;;;;;;;;;;;;;;;;5033180;28;20036;-77
2022/06/09 10:55:38;;;;;;;6.78;1.40;;;;;;;;;;5016968;28;20037;-79
2022/06/09 10:58:28;;;;;;;1.42;1.20;;;;;;;;;;5015907;28;20446;-77
2022/06/09 11:00:54;;;;;;;1.92;1.50;;;;;;;;;;5017307;28;20029;-75
2022/06/09 11:03:23;;;;;;;0.55;0.50;;;;;;;;;;5049317;28;20423;-76
2022/06/09 11:05:57;;;;;;;1.05;0.88;;;;;;;;;;5049439;28;20149;-76
2022/06/09 11:08:44;;;;;;;1.83;1.00;;;;;;;;;;5016995;28;20037;-75
2022/06/09 11:11:20;;;;;;;1.50;1.05;;;;;;;;;;5049326;28;20029;-75
2022/06/09 11:13:52;;;;;;;1.08;0.98;;;;;;;;;;5017023;28;20110;-75
2022/06/09 11:16:31;;;;;;;2.92;0.95;;;;;;;;;;5016596;28;20356;-73
2022/06/09 11:19:12;;;;;;;3.25;1.30;;;;;;;;;;5048479;28;20034;-76
2022/06/09 11:21:55;;;;;;;1.33;1.08;;;;;;;;;;5016839;28;20080;-76
2022/06/09 11:24:29;;;;;;;0.75;0.65;;;;;;;;;;5015526;28;20064;-73
2022/06/09 11:27:10;;;;;;;2.42;1.10;;;;;;;;;;5032318;28;20029;-74
2022/06/09 11:29:57;;;;;;;2.72;1.77;;;;;;;;;;5017558;28;20022;-74
2022/06/09 11:32:46;;;;;;;2.30;1.83;;;;;;;;;;5019284;28;20029;-76
2022/06/09 11:35:21;;;;;;;1.35;1.00;;;;;;;;;;5019161;28;20168;-76
2022/06/09 11:37:53;;;;;;;0.60;0.60;;;;;;;;;;5019380;28;20037;-77
2022/06/09 11:40:38;;;;;;;0.63;0.63;;;;;;;;;;5034607;28;20037;-76
2022/06/09 11:43:14;;;;;;;0.38;0.38;;;;;;;;;;5020188;28;20093;-76
2022/06/09 11:45:44;;;;;;;0.60;0.40;;;;;;;;;;5050691;28;20021;-75
2022/06/09 11:48:23;;;;;;;1.05;0.73;;;;;;;;;;5017328;28;20097;-76
2022/06/09 11:50:49;;;;;;;0.00;0.00;;;;;;;;;;5018360;28;20030;-76
2022/06/09 11:53:21;;;;;;;0.52;0.22;;;;;;;;;;5035121;28;20057;-75
2022/06/09 11:56:00;;;;;;;0.50;0.40;;;;;;;;;;5050670;28;20025;-75
2022/06/09 11:58:41;;;;;;;3.28;2.25;;;;;;;;;;5048731;28;20371;-76
2022/06/09 12:01:24;;;;;;;0.15;0.15;;;;;;;;;;5017358;28;20026;-75
2022/06/09 12:04:12;;;;;;;0.35;0.32;;;;;;;;;;5017858;28;20032;-75
2022/06/09 12:06:55;;;;;;;0.38;0.38;;;;;;;;;;5017997;28;20026;-75
2022/06/09 12:09:33;;;;;;;0.80;0.32;;;;;;;;;;5017439;28;20026;-75
2022/06/09 12:11:59;;;;;;;2.55;2.13;;;;;;;;;;5017238;28;20053;-74
2022/06/09 12:14:36;;;;;;;2.55;0.98;;;;;;;;;;5017376;28;20037;-76
2022/06/09 12:17:18;;;;;;;3.38;1.88;;;;;;;;;;5017987;28;20053;-75
2022/06/09 12:19:53;;;;;;;1.70;1.40;;;;;;;;;;5049546;28;20095;-74
2022/06/09 12:22:40;;;;;;;12.55;6.53;;;;;;;;;;5017550;28;20428;-76
2022/06/09 12:25:08;;;;;;;3.17;1.67;;;;;;;;;;5017455;28;20024;-75
2022/06/09 12:27:42;;;;;;;3.45;0.68;;;;;;;;;;5018553;28;20014;-75
2022/06/09 12:30:38;;;;;;;0.30;0.30;;;;;;;;;;5018424;28;20025;-75
2022/06/09 12:33:16;;;;;;;0.28;0.20;;;;;;;;;;5050419;28;20037;-75
2022/06/09 12:35:53;;;;;;;0.90;0.85;;;;;;;;;;5050198;28;20379;-77
2022/06/09 12:38:26;;;;;;;1.33;0.47;;;;;;;;;;5017535;28;20462;-77
2022/06/09 12:40:54;;;;;;;0.30;0.30;;;;;;;;;;5049604;28;20110;-77
2022/06/09 12:43:28;;;;;;;3.05;0.60;;;;;;;;;;5018115;28;20026;-75
2022/06/09 12:46:26;;;;;;;0.30;0.30;;;;;;;;;;5017866;28;20018;-77
2022/06/09 12:48:55;;;;;;;5.65;2.58;;;;;;;;;;5017162;28;20109;-80
2022/06/09 12:51:33;;;;;;;7.32;6.35;;;;;;;;;;5048819;28;20021;-80
2022/06/09 12:54:03;;;;;;;3.03;2.63;;;;;;;;;;5017450;28;20032;-77
2022/06/09 12:56:45;;;;;;;25.88;13.23;;;;;;;;;;5017274;28;20097;-79
2022/06/09 12:59:17;;;;;;;2.35;1.80;;;;;;;;;;5049683;28;20084;-81
2022/06/09 13:01:55;;;;;;;0.50;0.35;;;;;;;;;;5017304;28;20032;-80
2022/06/09 13:04:22;;;;;;;10.68;5.40;;;;;;;;;;5017399;28;20025;-79
2022/06/09 13:06:50;;;;;;;2.92;2.30;;;;;;;;;;5049409;28;20423;-78
2022/06/09 13:09:18;;;;;;;9.00;5.35;;;;;;;;;;5016969;28;20040;-76
2022/06/09 13:14:29;;;;;;;0.65;0.63;;;;;;;;;;5044036;28;20474;-78
2022/06/09 13:16:59;;;;;;;2.20;1.75;;;;;;;;;;5048348;28;20038;-78
2022/06/09 13:19:27;;;;;;;6.40;5.05;;;;;;;;;;5015639;28;20049;-79
2022/06/09 13:21:53;;;;;;;1.20;1.10;;;;;;;;;;5047955;28;20021;-80
2022/06/09 13:24:31;;;;;;;3.47;1.95;;;;;;;;;;5031863;28;20037;-79
2022/06/09 13:27:00;;;;;;;2.80;2.25;;;;;;;;;;5015744;28;20030;-78
2022/06/09 13:29:30;;;;;;;24.00;13.75;;;;;;;;;;5031085;28;20475;-78
2022/06/09 13:32:20;;;;;;;4.20;2.80;;;;;;;;;;5015461;28;20358;-78
2022/06/09 13:34:50;;;;;;;1.40;0.60;;;;;;;;;;5015772;28;20080;-76
2022/06/09 13:37:18;;;;;;;0.00;0.00;;;;;;;;;;5014886;28;20350;-76
2022/06/09 13:40:10;;;;;;;0.17;0.17;;;;;;;;;;5014900;28;20037;-77
2022/06/09 13:42:57;;;;;;;0.15;0.15;;;;;;;;;;5014450;28;20069;-77
2022/06/09 13:45:26;;;;;;;0.90;0.75;;;;;;;;;;5046869;28;20475;-77
2022/06/09 13:48:12;;;;;;;0.30;0.30;;;;;;;;;;5015495;28;20029;-77
2022/06/09 13:50:44;;;;;;;0.20;0.20;;;;;;;;;;5018557;28;20100;-77
2022/06/09 13:53:46;;;;;;;0.45;0.10;;;;;;;;;;5017757;28;20030;-76
2022/06/09 13:56:13;;;;;;;4.93;0.47;;;;;;;;;;5017753;28;20030;-76
2022/06/09 13:58:39;;;;;;;0.20;0.20;;;;;;;;;;5018358;28;20280;-77
2022/06/09 14:01:07;;;;;;;0.20;0.20;;;;;;;;;;5050625;28;20125;-77
2022/06/09 14:03:35;;;;;;;0.17;0.15;;;;;;;;;;5018037;28;20051;-77
2022/06/09 14:06:10;;;;;;;0.20;0.20;;;;;;;;;;5017696;28;20030;-77
2022/06/09 14:08:40;;;;;;;0.68;0.68;;;;;;;;;;5018075;28;20386;-77
2022/06/09 14:11:08;;;;;;;0.70;0.55;;;;;;;;;;5017900;28;20448;-77
2022/06/09 14:13:36;;;;;;;0.40;0.30;;;;;;;;;;5018705;28;20104;-77
2022/06/09 14:16:04;;;;;;;2.63;1.33;;;;;;;;;;5017996;28;20124;-77
2022/06/09 14:18:32;;;;;;;0.08;0.08;;;;;;;;;;5049554;28;20034;-77
2022/06/09 14:20:57;;;;;;;0.30;0.30;;;;;;;;;;5049556;28;20084;-77
2022/06/09 14:23:29;;;;;;;0.60;0.30;;;;;;;;;;5049727;28;20435;-77
2022/06/09 14:25:58;;;;;;;2.90;0.88;;;;;;;;;;5017703;28;20069;-77
2022/06/09 14:28:27;;;;;;;4.07;1.23;;;;;;;;;;5016673;28;20087;-76
2022/06/09 14:30:53;;;;;;;0.55;0.52;;;;;;;;;;5017483;28;20042;-77
2022/06/09 14:33:18;;;;;;;0.43;0.10;;;;;;;;;;5050011;28;20022;-77
2022/06/09 14:35:46;;;;;;;0.40;0.40;;;;;;;;;;5017773;28;20132;-77
2022/06/09 14:38:13;;;;;;;0.20;0.20;;;;;;;;;;5049756;28;20026;-76
2022/06/09 14:40:42;;;;;;;1.05;0.63;;;;;;;;;;5016859;28;20530;-77
2022/06/09 14:43:07;;;;;;;0.75;0.50;;;;;;;;;;5017271;28;20051;-77
2022/06/09 14:45:36;;;;;;;0.17;0.13;;;;;;;;;;5017642;28;20487;-77
2022/06/09 14:48:02;;;;;;;0.15;0.15;;;;;;;;;;5017440;28;20428;-76
2022/06/09 14:50:28;;;;;;;0.17;0.17;;;;;;;;;;5016478;28;20092;-77
2022/06/09 14:52:53;;;;;;;0.28;0.28;;;;;;;;;;5017176;28;20440;-76
2022/06/09 14:55:19;;;;;;;0.20;0.20;;;;;;;;;;5016099;28;20113;-76
2022/06/09 14:57:44;;;;;;;1.80;0.40;;;;;;;;;;5049452;28;20025;-76
2022/06/09 15:00:20;;;;;;;3.65;0.68;;;;;;;;;;5016675;28;20093;-77
2022/06/09 15:02:45;;;;;;;0.80;0.45;;;;;;;;;;5049124;28;20026;-76
2022/06/09 15:05:16;;;;;;;0.35;0.30;;;;;;;;;;5016890;28;20083;-76
2022/06/09 15:07:45;;;;;;;0.30;0.30;;;;;;;;;;5016812;28;20032;-76
2022/06/09 15:10:15;;;;;;;1.60;1.08;;;;;;;;;;5048863;28;20101;-76
2022/06/09 15:12:43;;;;;;;0.82;0.80;;;;;;;;;;5017634;28;20018;-76
2022/06/09 15:15:14;;;;;;;1.73;0.63;;;;;;;;;;5016764;28;20026;-76
2022/06/09 15:17:43;;;;;;;2.10;0.95;;;;;;;;;;5015601;28;20029;-76
2022/06/09 15:20:17;;;;;;;0.75;0.52;;;;;;;;;;5016877;28;20029;-76
2022/06/09 15:22:45;;;;;;;0.22;0.22;;;;;;;;;;5048524;28;20037;-76
2022/06/09 15:25:14;;;;;;;0.25;0.22;;;;;;;;;;5016733;28;20108;-76
2022/06/09 15:27:43;;;;;;;0.30;0.15;;;;;;;;;;5048643;28;20025;-76
2022/06/09 15:30:17;;;;;;;0.28;0.28;;;;;;;;;;5016424;28;20040;-76
2022/06/09 15:32:45;;;;;;;0.35;0.28;;;;;;;;;;5016312;28;20104;-76